Time;durP1;ratioP1;P1;durP2;ratioP2;P2;SDS_P1;SDS_P2;PMS_P1;PMS_P2;Temp;Humidity;BMP_temperature;BMP_pressure;BME280_temperature;BME280_humidity;BME280_pressure;Samples;Min_cycle;Max_cycle;Signal;HPM_P1;HPM_P2
2022/11/06 00:01:51;;;;;;;5.20;3.22;;;;;;;;;;10480734;28;20045;-82
2022/11/06 00:06:55;;;;;;;6.95;3.25;;;;;;;;;;10485906;28;20044;-82
2022/11/06 00:11:59;;;;;;;6.70;3.00;;;;;;;;;;10486316;28;20448;-81
2022/11/06 00:17:02;;;;;;;6.43;3.35;;;;;;;;;;10486429;28;20036;-82
2022/11/06 00:22:07;;;;;;;3.88;2.58;;;;;;;;;;10486827;28;20492;-82
2022/11/06 00:27:10;;;;;;;4.55;2.63;;;;;;;;;;10487815;28;20044;-82
2022/11/06 00:32:14;;;;;;;6.68;2.83;;;;;;;;;;10486397;28;20270;-82
2022/11/06 00:37:19;;;;;;;5.20;3.42;;;;;;;;;;10488585;28;20059;-83
2022/11/06 00:42:23;;;;;;;5.45;3.15;;;;;;;;;;10487140;28;20068;-83
2022/11/06 00:47:26;;;;;;;5.55;2.90;;;;;;;;;;10493528;28;20079;-82
2022/11/06 00:52:31;;;;;;;3.17;2.30;;;;;;;;;;10495231;28;20044;-83
2022/11/06 00:57:35;;;;;;;3.45;2.58;;;;;;;;;;10484618;28;20070;-82
2022/11/06 01:02:38;;;;;;;4.75;2.20;;;;;;;;;;10485063;28;20044;-82
2022/11/06 01:07:43;;;;;;;3.63;2.20;;;;;;;;;;10493035;28;20044;-82
2022/11/06 01:12:46;;;;;;;3.67;2.17;;;;;;;;;;10486718;28;20060;-83
2022/11/06 01:17:50;;;;;;;2.53;1.88;;;;;;;;;;10494882;28;20060;-83
2022/11/06 01:22:55;;;;;;;6.40;2.10;;;;;;;;;;10485683;28;20128;-83
2022/11/06 01:27:58;;;;;;;3.00;2.00;;;;;;;;;;10495551;28;20541;-82
2022/11/06 01:33:02;;;;;;;1.92;1.75;;;;;;;;;;10495795;28;20156;-82
2022/11/06 01:38:07;;;;;;;2.03;1.60;;;;;;;;;;10492469;28;20036;-82
2022/11/06 01:43:15;;;;;;;1.95;1.48;;;;;;;;;;10486815;28;20040;-84
2022/11/06 01:48:22;;;;;;;2.95;1.95;;;;;;;;;;10487833;28;20033;-83
2022/11/06 01:53:27;;;;;;;2.40;1.80;;;;;;;;;;10485909;28;20041;-83
2022/11/06 01:58:34;;;;;;;3.30;1.70;;;;;;;;;;10491444;28;20090;-83
2022/11/06 02:03:39;;;;;;;2.85;1.70;;;;;;;;;;10482846;28;20135;-83
2022/11/06 02:08:44;;;;;;;2.70;1.85;;;;;;;;;;10483742;28;20036;-83
2022/11/06 02:13:58;;;;;;;2.05;1.63;;;;;;;;;;10492616;28;20677;-83
2022/11/06 02:19:15;;;;;;;1.98;1.38;;;;;;;;;;10485357;28;20472;-83
2022/11/06 02:24:46;;;;;;;4.20;1.90;;;;;;;;;;10484130;28;20040;-83
2022/11/06 02:29:56;;;;;;;3.20;1.75;;;;;;;;;;10485232;28;20094;-83
2022/11/06 02:35:04;;;;;;;3.88;2.83;;;;;;;;;;10479866;28;20041;-83
2022/11/06 02:40:11;;;;;;;5.28;2.30;;;;;;;;;;10508037;28;20052;-83
2022/11/06 02:45:19;;;;;;;3.78;1.95;;;;;;;;;;10515979;28;20452;-84
2022/11/06 02:50:25;;;;;;;5.65;1.63;;;;;;;;;;10500467;28;20597;-83
2022/11/06 02:55:31;;;;;;;3.25;1.90;;;;;;;;;;10523319;28;20697;-84
2022/11/06 03:00:37;;;;;;;2.80;1.63;;;;;;;;;;10517844;28;20324;-83
2022/11/06 03:05:47;;;;;;;1.88;1.50;;;;;;;;;;10509282;28;20036;-83
2022/11/06 03:10:55;;;;;;;3.28;2.03;;;;;;;;;;10515931;28;20036;-83
2022/11/06 03:16:05;;;;;;;2.35;1.88;;;;;;;;;;10516816;28;20094;-82
2022/11/06 03:21:16;;;;;;;3.72;1.70;;;;;;;;;;10510056;28;20442;-83
2022/11/06 03:26:26;;;;;;;1.67;1.40;;;;;;;;;;10518859;28;20469;-83
2022/11/06 03:31:35;;;;;;;3.35;1.63;;;;;;;;;;10517724;28;20135;-82
2022/11/06 03:36:44;;;;;;;1.92;1.33;;;;;;;;;;10511574;28;20055;-83
2022/11/06 03:41:52;;;;;;;3.28;1.73;;;;;;;;;;10505635;28;20134;-83
2022/11/06 03:47:02;;;;;;;3.58;1.83;;;;;;;;;;10526084;28;20085;-82
2022/11/06 03:52:10;;;;;;;2.60;1.60;;;;;;;;;;10508385;28;20079;-82
2022/11/06 03:57:18;;;;;;;2.53;1.73;;;;;;;;;;10512794;28;20036;-82
2022/11/06 04:02:23;;;;;;;2.28;1.58;;;;;;;;;;10526703;28;20135;-82
2022/11/06 04:07:33;;;;;;;2.80;1.90;;;;;;;;;;10515463;28;20066;-83
2022/11/06 04:18:01;;;;;;;2.28;1.80;;;;;;;;;;10503437;28;20047;-82
2022/11/06 04:23:13;;;;;;;2.58;1.90;;;;;;;;;;10521434;28;20531;-82
2022/11/06 04:28:28;;;;;;;2.70;1.48;;;;;;;;;;10507849;28;20123;-83
2022/11/06 04:33:42;;;;;;;3.65;2.38;;;;;;;;;;10529796;28;20119;-82
2022/11/06 04:38:56;;;;;;;4.65;2.25;;;;;;;;;;10528745;28;20050;-82
2022/11/06 04:44:03;;;;;;;3.83;2.13;;;;;;;;;;10515172;28;20059;-83
2022/11/06 04:49:08;;;;;;;;;;;;;;;;;;10502463;28;20486;-83
2022/11/06 04:54:12;;;;;;;4.10;2.35;;;;;;;;;;10527716;28;19930;-83
2022/11/06 04:59:17;;;;;;;2.80;2.08;;;;;;;;;;10515764;28;20127;-83
2022/11/06 05:04:22;;;;;;;3.08;2.17;;;;;;;;;;10514983;28;20314;-83
2022/11/06 05:09:26;;;;;;;2.70;2.08;;;;;;;;;;10518927;28;20044;-83
2022/11/06 05:14:31;;;;;;;5.50;3.03;;;;;;;;;;10509124;28;20044;-82
2022/11/06 05:19:36;;;;;;;3.92;2.30;;;;;;;;;;10526417;28;20067;-83
2022/11/06 05:24:39;;;;;;;5.63;2.40;;;;;;;;;;10502326;28;20047;-82
2022/11/06 05:29:43;;;;;;;3.90;2.95;;;;;;;;;;10516117;28;20072;-84
2022/11/06 05:34:48;;;;;;;6.72;3.17;;;;;;;;;;10524886;28;20133;-83
2022/11/06 05:39:51;;;;;;;3.13;2.40;;;;;;;;;;10516938;28;20563;-82
2022/11/06 05:44:55;;;;;;;4.18;2.53;;;;;;;;;;10516782;28;20047;-82
2022/11/06 05:50:00;;;;;;;3.58;2.17;;;;;;;;;;10494917;28;20039;-83
2022/11/06 05:55:04;;;;;;;5.28;2.50;;;;;;;;;;10501462;28;20052;-83
2022/11/06 06:00:11;;;;;;;6.22;2.67;;;;;;;;;;10497404;28;20528;-83
2022/11/06 06:05:18;;;;;;;3.30;2.22;;;;;;;;;;10524027;28;20044;-83
2022/11/06 06:10:21;;;;;;;4.53;2.53;;;;;;;;;;10516112;28;20123;-82
2022/11/06 06:15:25;;;;;;;4.38;2.20;;;;;;;;;;10506802;28;20451;-84
2022/11/06 06:20:29;;;;;;;5.55;2.30;;;;;;;;;;10500930;28;20064;-83
2022/11/06 06:25:33;;;;;;;4.22;2.50;;;;;;;;;;10505089;28;20036;-82
2022/11/06 06:30:37;;;;;;;3.42;2.50;;;;;;;;;;10495944;28;20094;-83
2022/11/06 06:35:42;;;;;;;4.70;3.13;;;;;;;;;;10503311;28;20560;-83
2022/11/06 06:40:46;;;;;;;3.10;2.25;;;;;;;;;;10521649;28;20089;-83
2022/11/06 06:45:49;;;;;;;3.13;2.03;;;;;;;;;;10511467;28;20383;-84
2022/11/06 06:50:57;;;;;;;3.25;2.10;;;;;;;;;;10506812;28;20044;-83
2022/11/06 06:56:01;;;;;;;3.40;1.67;;;;;;;;;;10505324;28;20083;-83
2022/11/06 07:01:09;;;;;;;2.90;2.08;;;;;;;;;;10513130;28;20044;-83
2022/11/06 07:06:14;;;;;;;5.55;2.60;;;;;;;;;;10493988;28;20059;-83
2022/11/06 07:11:18;;;;;;;6.85;2.67;;;;;;;;;;10502365;28;20044;-83
2022/11/06 07:16:21;;;;;;;2.40;1.88;;;;;;;;;;10497720;28;20048;-83
2022/11/06 07:21:26;;;;;;;3.22;2.28;;;;;;;;;;10527060;28;20102;-83
2022/11/06 07:26:29;;;;;;;4.32;2.65;;;;;;;;;;10529010;28;20054;-82
2022/11/06 07:31:33;;;;;;;3.13;1.75;;;;;;;;;;10513515;28;20044;-82
2022/11/06 07:36:38;;;;;;;4.68;1.98;;;;;;;;;;10512702;28;20036;-84
2022/11/06 07:41:41;;;;;;;2.80;2.00;;;;;;;;;;10497266;28;20044;-82
2022/11/06 07:46:45;;;;;;;5.15;2.47;;;;;;;;;;10484988;28;20033;-81
2022/11/06 07:51:50;;;;;;;2.75;1.98;;;;;;;;;;10485639;28;20109;-83
2022/11/06 07:56:54;;;;;;;2.78;1.88;;;;;;;;;;10503552;28;20127;-82
2022/11/06 08:01:57;;;;;;;3.42;1.70;;;;;;;;;;10520728;28;20043;-82
2022/11/06 08:07:02;;;;;;;1.50;1.17;;;;;;;;;;10512061;28;20051;-82
2022/11/06 08:12:06;;;;;;;2.92;1.92;;;;;;;;;;10528947;28;20040;-82
2022/11/06 08:17:09;;;;;;;4.22;2.50;;;;;;;;;;10505683;28;20090;-82
2022/11/06 08:22:14;;;;;;;4.28;2.50;;;;;;;;;;10521403;28;20044;-82
2022/11/06 08:27:20;;;;;;;4.18;2.00;;;;;;;;;;10513907;28;20056;-83
2022/11/06 08:32:23;;;;;;;2.78;1.58;;;;;;;;;;10502434;28;20039;-83
2022/11/06 08:37:28;;;;;;;5.78;3.28;;;;;;;;;;10503208;28;20110;-82
2022/11/06 08:42:31;;;;;;;2.25;1.50;;;;;;;;;;10494745;28;20135;-83
2022/11/06 08:47:35;;;;;;;3.38;1.83;;;;;;;;;;10504649;28;20067;-83
2022/11/06 08:52:43;;;;;;;;;;;;;;;;;;10513485;28;20040;-82
2022/11/06 08:57:46;;;;;;;1.40;1.13;;;;;;;;;;10507948;28;19928;-82
2022/11/06 09:02:50;;;;;;;3.83;1.58;;;;;;;;;;10491766;28;20041;-82
2022/11/06 09:07:55;;;;;;;4.80;1.55;;;;;;;;;;10480354;28;20048;-81
2022/11/06 09:12:59;;;;;;;3.13;1.70;;;;;;;;;;10513713;28;20110;-82
2022/11/06 09:18:03;;;;;;;4.78;2.00;;;;;;;;;;10478673;28;20048;-82
2022/11/06 09:23:09;;;;;;;4.82;2.28;;;;;;;;;;10500300;28;20494;-82
2022/11/06 09:28:12;;;;;;;;;;;;;;;;;;10489397;28;20412;-81
2022/11/06 09:33:16;;;;;;;2.95;1.88;;;;;;;;;;10503299;28;19920;-82
2022/11/06 09:38:21;;;;;;;4.50;2.28;;;;;;;;;;10507440;28;20036;-81
2022/11/06 09:43:37;;;;;;;2.85;1.77;;;;;;;;;;10496401;28;20239;-82
2022/11/06 09:49:05;;;;;;;3.72;1.70;;;;;;;;;;10481659;28;20048;-81
2022/11/06 09:54:16;;;;;;;3.22;1.60;;;;;;;;;;10493302;28;20406;-81
2022/11/06 09:59:21;;;;;;;1.83;1.15;;;;;;;;;;10491389;28;20075;-82
2022/11/06 10:04:37;;;;;;;3.47;0.90;;;;;;;;;;10489249;28;20093;-82
2022/11/06 10:09:42;;;;;;;2.75;1.05;;;;;;;;;;10480558;28;20043;-82
2022/11/06 10:15:01;;;;;;;3.67;1.50;;;;;;;;;;10498845;28;20067;-81
2022/11/06 10:20:12;;;;;;;1.73;1.02;;;;;;;;;;10491041;28;20056;-81
2022/11/06 10:25:21;;;;;;;1.00;0.60;;;;;;;;;;10499283;28;20050;-82
2022/11/06 10:30:25;;;;;;;2.53;1.08;;;;;;;;;;10499713;28;20097;-82
2022/11/06 10:35:34;;;;;;;1.23;0.70;;;;;;;;;;10491402;28;20044;-82
2022/11/06 10:40:42;;;;;;;1.77;0.90;;;;;;;;;;10485430;28;20127;-82
2022/11/06 10:45:49;;;;;;;1.05;0.60;;;;;;;;;;10483836;28;20080;-82
2022/11/06 10:51:04;;;;;;;1.08;0.60;;;;;;;;;;10508819;28;20044;-82
2022/11/06 10:56:35;;;;;;;0.73;0.50;;;;;;;;;;10495282;28;20072;-82
2022/11/06 11:01:39;;;;;;;2.00;0.50;;;;;;;;;;10495145;28;20132;-82
2022/11/06 11:06:42;;;;;;;1.48;0.82;;;;;;;;;;10500372;28;20497;-82
2022/11/06 11:11:50;;;;;;;2.05;1.00;;;;;;;;;;10498148;28;20058;-81
2022/11/06 11:16:55;;;;;;;1.40;0.75;;;;;;;;;;10478874;28;20499;-81
2022/11/06 11:22:04;;;;;;;1.98;1.27;;;;;;;;;;10508322;28;20048;-80
2022/11/06 11:27:14;;;;;;;4.50;1.30;;;;;;;;;;10481120;28;20075;-80
2022/11/06 11:32:19;;;;;;;0.93;0.80;;;;;;;;;;10509753;28;20028;-79
2022/11/06 11:37:26;;;;;;;0.88;0.77;;;;;;;;;;10511488;28;20064;-79
2022/11/06 11:42:32;;;;;;;1.20;0.70;;;;;;;;;;10516095;28;20119;-79
2022/11/06 11:47:37;;;;;;;1.52;0.80;;;;;;;;;;10504113;28;20060;-79
2022/11/06 11:52:41;;;;;;;0.80;0.60;;;;;;;;;;10522539;28;20127;-80
2022/11/06 11:57:48;;;;;;;1.88;0.70;;;;;;;;;;10506116;28;20060;-80
2022/11/06 12:02:55;;;;;;;1.38;0.85;;;;;;;;;;10523070;28;20090;-80
2022/11/06 12:07:59;;;;;;;0.93;0.40;;;;;;;;;;10506684;28;20036;-80
2022/11/06 12:13:06;;;;;;;1.98;1.02;;;;;;;;;;10531889;28;20045;-80
2022/11/06 12:18:13;;;;;;;2.08;0.90;;;;;;;;;;10521987;28;20402;-79
2022/11/06 12:23:21;;;;;;;1.60;1.25;;;;;;;;;;10513353;28;20044;-80
2022/11/06 12:28:28;;;;;;;1.58;1.00;;;;;;;;;;10527323;28;20036;-80
2022/11/06 12:33:33;;;;;;;0.98;0.82;;;;;;;;;;10517641;28;20067;-79
2022/11/06 12:39:01;;;;;;;1.27;1.00;;;;;;;;;;10521024;28;20199;-79
2022/11/06 12:44:11;;;;;;;1.20;0.90;;;;;;;;;;10521239;28;20417;-80
2022/11/06 12:50:00;;;;;;;0.93;0.70;;;;;;;;;;10484694;28;20036;-80
2022/11/06 12:55:16;;;;;;;2.00;0.70;;;;;;;;;;10503590;28;20137;-80
2022/11/06 13:00:23;;;;;;;1.37;1.20;;;;;;;;;;10512225;28;20044;-79
2022/11/06 13:05:34;;;;;;;1.75;1.10;;;;;;;;;;10531271;28;20532;-80
2022/11/06 13:10:51;;;;;;;1.83;1.42;;;;;;;;;;10505499;28;20045;-79
2022/11/06 13:16:01;;;;;;;1.67;1.23;;;;;;;;;;10496913;28;20048;-79
2022/11/06 13:21:10;;;;;;;1.50;1.08;;;;;;;;;;10500594;28;20054;-80
2022/11/06 13:26:20;;;;;;;0.88;0.85;;;;;;;;;;10504149;28;20032;-79
2022/11/06 13:31:30;;;;;;;3.47;1.15;;;;;;;;;;10498940;28;20441;-80
2022/11/06 13:36:37;;;;;;;1.42;0.88;;;;;;;;;;10508994;28;20071;-79
2022/11/06 13:41:41;;;;;;;1.85;0.80;;;;;;;;;;10524488;28;20044;-80
2022/11/06 13:46:55;;;;;;;1.85;1.00;;;;;;;;;;10512003;28;20045;-79
2022/11/06 13:52:01;;;;;;;2.33;1.02;;;;;;;;;;10509612;28;20036;-79
2022/11/06 13:57:31;;;;;;;1.77;0.90;;;;;;;;;;10525058;28;20050;-79
2022/11/06 14:03:11;;;;;;;1.33;1.23;;;;;;;;;;10495950;28;20641;-79
2022/11/06 14:08:18;;;;;;;1.75;1.35;;;;;;;;;;10498720;28;20040;-79
2022/11/06 14:13:34;;;;;;;2.55;1.40;;;;;;;;;;10515003;28;20036;-79
2022/11/06 14:18:38;;;;;;;2.72;1.40;;;;;;;;;;10493854;28;20060;-78
2022/11/06 14:23:54;;;;;;;2.50;1.63;;;;;;;;;;10516004;28;20468;-79
2022/11/06 14:29:17;;;;;;;2.72;1.67;;;;;;;;;;10513448;28;20044;-79
2022/11/06 14:34:28;;;;;;;3.03;2.05;;;;;;;;;;10514126;28;20079;-79
2022/11/06 14:40:12;;;;;;;6.05;1.88;;;;;;;;;;10525717;28;20528;-79
2022/11/06 14:45:19;;;;;;;3.92;2.42;;;;;;;;;;10497888;28;20040;-79
2022/11/06 14:50:28;;;;;;;3.95;2.35;;;;;;;;;;10518701;28;20477;-81
2022/11/06 14:55:37;;;;;;;2.22;1.38;;;;;;;;;;10518932;28;20391;-81
2022/11/06 15:00:47;;;;;;;2.17;1.60;;;;;;;;;;10480136;28;20071;-81
2022/11/06 15:05:52;;;;;;;3.53;2.50;;;;;;;;;;10492640;28;20102;-81
2022/11/06 15:10:57;;;;;;;3.47;1.90;;;;;;;;;;10508469;28;20465;-80
2022/11/06 15:16:11;;;;;;;5.85;3.95;;;;;;;;;;10517930;28;20458;-81
2022/11/06 15:21:22;;;;;;;5.25;2.92;;;;;;;;;;10511282;28;20109;-81
2022/11/06 15:26:29;;;;;;;2.40;1.80;;;;;;;;;;10507787;28;20040;-81
2022/11/06 15:31:33;;;;;;;3.20;1.50;;;;;;;;;;10497730;28;20090;-81
2022/11/06 15:36:40;;;;;;;2.25;1.20;;;;;;;;;;10495971;28;20424;-81
2022/11/06 15:41:50;;;;;;;;;;;;;;;;;;10481616;28;20464;-80
2022/11/06 15:46:56;;;;;;;1.60;1.50;;;;;;;;;;10474235;28;19921;-82
2022/11/06 15:52:02;;;;;;;2.50;1.63;;;;;;;;;;10487712;28;20044;-81
2022/11/06 15:57:14;;;;;;;1.65;1.13;;;;;;;;;;10476659;28;20304;-81
2022/11/06 16:02:21;;;;;;;2.67;1.90;;;;;;;;;;10479335;28;20044;-80
2022/11/06 16:07:25;;;;;;;;;;;;;;;;;;10480701;28;20036;-81
2022/11/06 16:12:30;;;;;;;2.97;1.92;;;;;;;;;;10488162;28;19959;-81
2022/11/06 16:17:33;;;;;;;3.28;2.10;;;;;;;;;;10475879;28;20123;-80
2022/11/06 16:22:37;;;;;;;4.18;2.55;;;;;;;;;;10467703;28;20075;-80
2022/11/06 16:27:42;;;;;;;2.80;2.38;;;;;;;;;;10481719;28;20124;-80
2022/11/06 16:32:45;;;;;;;7.00;4.72;;;;;;;;;;10496818;28;20067;-81
2022/11/06 16:37:49;;;;;;;5.35;2.80;;;;;;;;;;10481856;28;20055;-81
2022/11/06 16:43:03;;;;;;;3.13;2.42;;;;;;;;;;10498174;28;20068;-81
2022/11/06 16:48:40;;;;;;;3.33;2.45;;;;;;;;;;10481773;28;20048;-81
2022/11/06 16:53:55;;;;;;;4.13;2.50;;;;;;;;;;10346181;28;20146;-81
2022/11/06 16:59:03;;;;;;;2.20;1.65;;;;;;;;;;10450983;28;20105;-82
2022/11/06 17:04:10;;;;;;;3.47;2.47;;;;;;;;;;10528874;28;20097;-81
2022/11/06 17:09:28;;;;;;;1.73;1.60;;;;;;;;;;10488670;28;20054;-81
2022/11/06 17:14:33;;;;;;;2.28;1.50;;;;;;;;;;10500737;28;20064;-81
2022/11/06 17:19:37;;;;;;;2.15;1.58;;;;;;;;;;10514088;28;20044;-81
2022/11/06 17:24:40;;;;;;;2.10;1.77;;;;;;;;;;10504875;28;20057;-81
2022/11/06 17:29:45;;;;;;;2.63;1.52;;;;;;;;;;10496114;28;20068;-82
2022/11/06 17:34:48;;;;;;;2.20;1.60;;;;;;;;;;10510243;28;20044;-81
2022/11/06 17:39:52;;;;;;;4.15;2.47;;;;;;;;;;10495998;28;20135;-81
2022/11/06 17:44:56;;;;;;;2.17;1.70;;;;;;;;;;10503935;28;20076;-80
2022/11/06 17:50:00;;;;;;;1.90;1.60;;;;;;;;;;10514728;28;20052;-82
2022/11/06 17:55:04;;;;;;;2.25;1.10;;;;;;;;;;10514695;28;20078;-81
2022/11/06 18:00:11;;;;;;;2.15;1.70;;;;;;;;;;10503381;28;20041;-82
2022/11/06 18:05:16;;;;;;;2.10;1.65;;;;;;;;;;10519555;28;20137;-83
2022/11/06 18:10:20;;;;;;;1.50;1.40;;;;;;;;;;10511800;28;20131;-81
2022/11/06 18:15:26;;;;;;;1.40;1.10;;;;;;;;;;10505479;28;20508;-82
2022/11/06 18:20:30;;;;;;;1.55;1.10;;;;;;;;;;10507765;28;20119;-81
2022/11/06 18:25:33;;;;;;;0.90;0.90;;;;;;;;;;10528208;28;20520;-82
2022/11/06 18:30:39;;;;;;;1.55;1.00;;;;;;;;;;10518542;28;20068;-81
2022/11/06 18:35:43;;;;;;;1.25;0.98;;;;;;;;;;10511399;28;20130;-81
2022/11/06 18:40:46;;;;;;;1.40;1.30;;;;;;;;;;10514080;28;20152;-82
2022/11/06 18:45:55;;;;;;;1.70;1.20;;;;;;;;;;10533538;28;20523;-81
2022/11/06 18:51:06;;;;;;;1.57;1.27;;;;;;;;;;10529879;28;20130;-82
2022/11/06 18:56:10;;;;;;;1.58;1.10;;;;;;;;;;10519238;28;20044;-82
2022/11/06 19:01:17;;;;;;;1.98;1.50;;;;;;;;;;10538998;28;20093;-82
2022/11/06 19:06:21;;;;;;;1.73;1.17;;;;;;;;;;10536332;28;20251;-82
2022/11/06 19:11:25;;;;;;;1.63;1.35;;;;;;;;;;10513425;28;20052;-82
2022/11/06 19:16:29;;;;;;;3.40;1.35;;;;;;;;;;10519685;28;20037;-82
2022/11/06 19:21:33;;;;;;;1.23;1.13;;;;;;;;;;10514997;28;20040;-81
2022/11/06 19:26:36;;;;;;;1.40;1.30;;;;;;;;;;10519626;28;20124;-83
2022/11/06 19:31:41;;;;;;;1.30;1.10;;;;;;;;;;10516285;28;20452;-81
2022/11/06 19:36:45;;;;;;;1.55;1.13;;;;;;;;;;10520284;28;20028;-82
2022/11/06 19:41:48;;;;;;;1.55;1.02;;;;;;;;;;10515090;28;20051;-81
2022/11/06 19:46:53;;;;;;;1.00;0.93;;;;;;;;;;10518133;28;20040;-81
2022/11/06 19:51:56;;;;;;;1.50;1.00;;;;;;;;;;10498333;28;20055;-81
2022/11/06 19:57:00;;;;;;;0.95;0.85;;;;;;;;;;10498932;28;20041;-82
2022/11/06 20:02:04;;;;;;;1.30;1.10;;;;;;;;;;10531377;28;20051;-82
2022/11/06 20:07:08;;;;;;;1.95;1.40;;;;;;;;;;10507229;28;20070;-82
2022/11/06 20:12:14;;;;;;;1.70;1.08;;;;;;;;;;10516936;28;20127;-82
2022/11/06 20:17:19;;;;;;;2.05;1.20;;;;;;;;;;10488146;28;20529;-81
2022/11/06 20:22:23;;;;;;;1.67;1.20;;;;;;;;;;10494129;28;20040;-83
2022/11/06 20:27:27;;;;;;;1.58;1.27;;;;;;;;;;10500105;28;20039;-80
2022/11/06 20:32:32;;;;;;;1.48;1.10;;;;;;;;;;10504996;28;20127;-80
2022/11/06 20:37:36;;;;;;;1.55;1.23;;;;;;;;;;10485734;28;20043;-81
2022/11/06 20:42:39;;;;;;;2.30;1.30;;;;;;;;;;10498335;28;20071;-81
2022/11/06 20:47:44;;;;;;;4.88;2.47;;;;;;;;;;10475778;28;20059;-80
2022/11/06 20:52:47;;;;;;;2.00;1.38;;;;;;;;;;10490139;28;20036;-80
2022/11/06 20:57:51;;;;;;;1.63;1.30;;;;;;;;;;10475797;28;20658;-80
2022/11/06 21:02:56;;;;;;;2.95;1.60;;;;;;;;;;10484855;28;20091;-80
2022/11/06 21:08:03;;;;;;;4.10;2.00;;;;;;;;;;10474983;28;20043;-80
2022/11/06 21:13:07;;;;;;;4.85;2.00;;;;;;;;;;10480669;28;20054;-79
2022/11/06 21:18:11;;;;;;;1.65;1.20;;;;;;;;;;10478779;28;20402;-80
2022/11/06 21:23:16;;;;;;;3.35;1.60;;;;;;;;;;10521873;28;20555;-80
2022/11/06 21:28:19;;;;;;;1.70;1.38;;;;;;;;;;10521477;28;20047;-80
2022/11/06 21:33:24;;;;;;;2.80;1.42;;;;;;;;;;10509162;28;20079;-81
2022/11/06 21:38:27;;;;;;;3.97;1.52;;;;;;;;;;10516609;28;20032;-80
2022/11/06 21:43:30;;;;;;;1.95;1.45;;;;;;;;;;10520511;28;20621;-80
2022/11/06 21:48:35;;;;;;;2.90;1.77;;;;;;;;;;10512853;28;20069;-79
2022/11/06 21:59:33;;;;;;;3.42;2.20;;;;;;;;;;10476421;22;20076;-79
2022/11/06 22:04:41;;;;;;;2.38;1.40;;;;;;;;;;10425033;28;20044;-80
2022/11/06 22:09:44;;;;;;;3.20;1.85;;;;;;;;;;10428038;28;20059;-79
2022/11/06 22:14:48;;;;;;;2.22;1.60;;;;;;;;;;10436466;28;20498;-79
2022/11/06 22:19:52;;;;;;;4.88;2.95;;;;;;;;;;10428516;28;20044;-79
2022/11/06 22:24:56;;;;;;;3.70;1.60;;;;;;;;;;10428929;28;20047;-79
2022/11/06 22:29:59;;;;;;;2.58;1.60;;;;;;;;;;10461496;28;20144;-79
2022/11/06 22:35:05;;;;;;;2.50;1.30;;;;;;;;;;10428000;28;20037;-79
2022/11/06 22:40:10;;;;;;;4.63;1.97;;;;;;;;;;10445365;28;20041;-79
2022/11/06 22:45:13;;;;;;;2.15;1.60;;;;;;;;;;10442417;28;20048;-80
2022/11/06 22:50:18;;;;;;;1.13;0.88;;;;;;;;;;10449575;28;20131;-79
2022/11/06 22:55:21;;;;;;;2.17;1.45;;;;;;;;;;10434054;28;20132;-79
2022/11/06 23:00:26;;;;;;;3.25;1.27;;;;;;;;;;10442009;28;20263;-79
2022/11/06 23:05:30;;;;;;;1.70;1.13;;;;;;;;;;10428570;28;20044;-80
2022/11/06 23:10:35;;;;;;;1.58;1.27;;;;;;;;;;10421839;28;20048;-79
2022/11/06 23:15:38;;;;;;;2.70;1.60;;;;;;;;;;10445263;28;20060;-79
2022/11/06 23:20:43;;;;;;;3.28;1.65;;;;;;;;;;10436465;28;20129;-80
2022/11/06 23:25:46;;;;;;;2.15;1.05;;;;;;;;;;10419697;28;20060;-79
2022/11/06 23:30:50;;;;;;;2.90;1.20;;;;;;;;;;10453061;28;20068;-79
2022/11/06 23:35:55;;;;;;;1.50;1.00;;;;;;;;;;10434600;28;20041;-79
2022/11/06 23:41:41;;;;;;;1.80;1.40;;;;;;;;;;10426239;28;20048;-79
2022/11/06 23:46:23;;;;;;;2.80;1.63;;;;;;;;;;10444130;28;20132;-79
2022/11/06 23:51:28;;;;;;;2.55;1.40;;;;;;;;;;10464005;28;20036;-79
2022/11/06 23:56:35;;;;;;;1.88;1.55;;;;;;;;;;10454723;28;20040;-80
